Valdivia, Chile
Current Conditions -  °F | °C
As of 12:00 PM on Monday 24 Nov 2014 (Local Time) from SCVD Reporting Station
Broken Clouds Broken Clouds  
Wind Chill: 57°   Ceiling: 5000
Heat Index: 57°   Visibility: 6mi
Dew Point: 45°   Wind: 2mph
Humidity: 63%   Direction: NA
Pressure: 30.18"   Gusts: NA
Location:  39.82°S, 73.23°W
Report Text: SCVD 241600Z VRB02KT 9999 FEW020 BKN050 14/07 Q1022
Loading
Personal Weather Stations






























Interactive Weather Map New forecast layout! Learn more

10-Day Weather Forecast

Advertisements
Track Severe Weather on mobile